Time;durP1;ratioP1;P1;durP2;ratioP2;P2;SDS_P1;SDS_P2;PMS_P1;PMS_P2;Temp;Humidity;BMP_temperature;BMP_pressure;BME280_temperature;BME280_humidity;BME280_pressure;Samples;Min_cycle;Max_cycle;Signal;HPM_P1;HPM_P2
2023/01/27 00:01:19;;;;;;;;;;;23.00;89.30;;;;;;6302652;22;19918;-72
2023/01/27 00:03:45;;;;;;;;;;;23.00;89.40;;;;;;6302292;22;20018;-72
2023/01/27 00:06:12;;;;;;;;;;;23.10;91.00;;;;;;6303084;22;19914;-71
2023/01/27 00:08:39;;;;;;;;;;;23.20;90.50;;;;;;6302859;22;19931;-71
2023/01/27 00:13:50;;;;;;;;;;;23.30;90.70;;;;;;6303093;22;19979;-71
2023/01/27 00:16:17;;;;;;;;;;;23.20;89.90;;;;;;6302619;22;20265;-72
2023/01/27 00:18:43;;;;;;;;;;;23.10;90.10;;;;;;6302250;22;19903;-70
2023/01/27 00:26:40;;;;;;;;;;;23.50;89.70;;;;;;6303318;22;20329;-71
2023/01/27 00:29:06;;;;;;;;;;;23.80;90.00;;;;;;6303327;22;19910;-71
2023/01/27 00:34:18;;;;;;;;;;;23.70;87.00;;;;;;6303050;22;19913;-72
2023/01/27 00:36:44;;;;;;;;;;;23.60;86.10;;;;;;6304374;22;19925;-71
2023/01/27 00:39:11;;;;;;;;;;;23.60;86.20;;;;;;6304570;22;19934;-71
2023/01/27 00:41:38;;;;;;;;;;;23.50;85.60;;;;;;6304788;22;19907;-71
2023/01/27 00:44:05;;;;;;;;;;;23.60;85.70;;;;;;6277551;22;19903;-71
2023/01/27 00:46:32;;;;;;;;;;;23.70;86.10;;;;;;6278098;22;19922;-71
2023/01/27 00:48:59;;;;;;;;;;;23.80;84.90;;;;;;6304824;22;19906;-71
2023/01/27 00:51:26;;;;;;;;;;;23.80;84.50;;;;;;6304665;22;20269;-70
2023/01/27 00:53:52;;;;;;;;;;;23.90;85.40;;;;;;6305063;22;19911;-70
2023/01/27 00:56:19;;;;;;;;;;;24.10;85.00;;;;;;6304779;22;19990;-69
2023/01/27 00:58:46;;;;;;;;;;;24.10;83.00;;;;;;6304508;22;19911;-70
2023/01/27 01:01:13;;;;;;;;;;;24.10;83.30;;;;;;6304570;22;19922;-71
2023/01/27 01:03:40;;;;;;;;;;;24.10;83.70;;;;;;6304516;22;19906;-70
2023/01/27 01:06:08;;;;;;;;;;;24.30;82.80;;;;;;6304728;22;19914;-70
2023/01/27 01:08:35;;;;;;;;;;;24.30;82.00;;;;;;6304421;22;19985;-70
2023/01/27 01:11:02;;;;;;;;;;;24.20;83.50;;;;;;6304957;22;19903;-69
2023/01/27 01:13:29;;;;;;;;;;;24.30;83.20;;;;;;6304470;22;19914;-70
2023/01/27 01:15:56;;;;;;;;;;;24.40;83.50;;;;;;6304911;22;19913;-69
2023/01/27 01:18:22;;;;;;;;;;;24.40;82.70;;;;;;6302401;22;19910;-71
2023/01/27 01:20:49;;;;;;;;;;;24.40;82.70;;;;;;6301883;22;19915;-70
2023/01/27 01:23:16;;;;;;;;;;;24.60;83.10;;;;;;6304077;22;19952;-70
2023/01/27 01:25:42;;;;;;;;;;;24.50;82.20;;;;;;6304522;22;20408;-70
2023/01/27 01:28:09;;;;;;;;;;;24.40;81.40;;;;;;6304390;22;19903;-70
2023/01/27 01:30:36;;;;;;;;;;;24.40;82.40;;;;;;6304094;22;19903;-70
2023/01/27 01:33:03;;;;;;;;;;;24.50;81.50;;;;;;6276481;22;19923;-70
2023/01/27 01:35:29;;;;;;;;;;;24.60;83.00;;;;;;6304715;22;19965;-69
2023/01/27 01:37:56;;;;;;;;;;;24.60;81.60;;;;;;6304123;22;19910;-70
2023/01/27 01:40:24;;;;;;;;;;;24.60;81.80;;;;;;6303986;22;19915;-70
2023/01/27 01:42:57;;;;;;;;;;;24.60;81.80;;;;;;6303654;22;20326;-70
2023/01/27 01:45:35;;;;;;;;;;;24.70;81.10;;;;;;6303912;22;19907;-70
2023/01/27 01:48:04;;;;;;;;;;;24.60;81.90;;;;;;6304535;22;19907;-70
2023/01/27 01:50:31;;;;;;;;;;;24.70;80.80;;;;;;6303642;22;20013;-69
2023/01/27 01:52:58;;;;;;;;;;;24.80;81.60;;;;;;6276967;22;19985;-70
2023/01/27 01:55:24;;;;;;;;;;;24.80;80.50;;;;;;6277027;22;19910;-70
2023/01/27 01:57:51;;;;;;;;;;;24.80;80.10;;;;;;6277087;22;19912;-70
2023/01/27 02:00:18;;;;;;;;;;;24.80;80.30;;;;;;6304282;22;19919;-70
2023/01/27 02:02:44;;;;;;;;;;;24.80;81.40;;;;;;6303621;22;19914;-69
2023/01/27 02:05:31;;;;;;;;;;;24.80;80.40;;;;;;6276606;22;19906;-69
2023/01/27 02:08:15;;;;;;;;;;;24.70;81.50;;;;;;6303038;22;19903;-69
2023/01/27 02:10:42;;;;;;;;;;;24.80;80.60;;;;;;6276981;22;19986;-69
2023/01/27 02:13:08;;;;;;;;;;;24.80;80.60;;;;;;6303908;22;19907;-70
2023/01/27 02:15:35;;;;;;;;;;;24.80;80.70;;;;;;6251914;22;19911;-69
2023/01/27 02:18:02;;;;;;;;;;;24.80;81.10;;;;;;6303678;22;19907;-71
2023/01/27 02:20:42;;;;;;;;;;;24.80;80.30;;;;;;6303304;22;20245;-71
2023/01/27 02:23:27;;;;;;;;;;;24.90;81.10;;;;;;6276127;22;19912;-71
2023/01/27 02:26:09;;;;;;;;;;;25.00;80.20;;;;;;6303334;22;20237;-71
2023/01/27 02:28:36;;;;;;;;;;;24.90;79.40;;;;;;6304072;22;20302;-72
2023/01/27 02:31:02;;;;;;;;;;;24.80;80.90;;;;;;6303781;22;20326;-70
2023/01/27 02:33:29;;;;;;;;;;;24.80;80.40;;;;;;6303796;22;19911;-70
2023/01/27 02:36:02;;;;;;;;;;;24.80;80.60;;;;;;6304010;22;19930;-71
2023/01/27 02:38:31;;;;;;;;;;;24.80;80.30;;;;;;6303618;22;20237;-71
2023/01/27 02:40:58;;;;;;;;;;;24.80;81.40;;;;;;6276359;22;20293;-70
2023/01/27 02:43:25;;;;;;;;;;;24.80;80.20;;;;;;6303605;22;19909;-72
2023/01/27 02:45:52;;;;;;;;;;;24.90;80.50;;;;;;6303669;22;20349;-72
2023/01/27 02:48:18;;;;;;;;;;;24.90;79.70;;;;;;6303693;22;19907;-71
2023/01/27 02:50:45;;;;;;;;;;;24.90;79.80;;;;;;6303406;22;19907;-71
2023/01/27 02:53:12;;;;;;;;;;;24.90;79.70;;;;;;6303011;22;19952;-71
2023/01/27 02:55:38;;;;;;;;;;;24.90;80.10;;;;;;6304208;22;19915;-71
2023/01/27 02:58:05;;;;;;;;;;;25.00;80.40;;;;;;6302918;22;19911;-71
2023/01/27 03:00:32;;;;;;;;;;;25.00;79.90;;;;;;6303378;22;19942;-70
2023/01/27 03:02:58;;;;;;;;;;;25.00;79.70;;;;;;6303419;22;19910;-71
2023/01/27 03:05:25;;;;;;;;;;;25.10;80.70;;;;;;6303731;22;19910;-71
2023/01/27 03:07:52;;;;;;;;;;;25.10;79.60;;;;;;6302834;22;19937;-72
2023/01/27 03:10:18;;;;;;;;;;;25.20;79.80;;;;;;6303595;22;19910;-72
2023/01/27 03:12:45;;;;;;;;;;;25.10;79.90;;;;;;6304087;22;20318;-73
2023/01/27 03:18:12;;;;;;;;;;;25.00;79.30;;;;;;6303827;22;20003;-71
2023/01/27 03:20:39;;;;;;;;;;;25.00;80.20;;;;;;6300482;22;20280;-71
2023/01/27 03:23:06;;;;;;;;;;;25.00;80.10;;;;;;6303145;22;19976;-71
2023/01/27 03:25:32;;;;;;;;;;;25.10;80.50;;;;;;6303448;22;20330;-71
2023/01/27 03:27:59;;;;;;;;;;;25.10;79.50;;;;;;6302875;22;20028;-70
2023/01/27 03:30:27;;;;;;;;;;;25.10;79.90;;;;;;6304500;22;20313;-71
2023/01/27 03:32:53;;;;;;;;;;;25.20;79.50;;;;;;6303023;22;19942;-71
2023/01/27 03:35:22;;;;;;;;;;;25.20;79.30;;;;;;6303576;22;19907;-71
2023/01/27 03:46:18;;;;;;;;;;;25.20;78.30;;;;;;6280439;22;20233;-70
2023/01/27 03:48:51;;;;;;;;;;;25.20;79.20;;;;;;6303362;22;19952;-71
2023/01/27 03:51:18;;;;;;;;;;;25.20;79.40;;;;;;6302875;22;19903;-71
2023/01/27 03:53:45;;;;;;;;;;;25.30;78.60;;;;;;6303280;22;19999;-72
2023/01/27 03:56:11;;;;;;;;;;;25.30;80.10;;;;;;6303591;22;19942;-71
2023/01/27 03:58:38;;;;;;;;;;;25.30;79.30;;;;;;6276169;22;19966;-72
2023/01/27 04:01:15;;;;;;;;;;;25.20;78.70;;;;;;6303350;22;19915;-76
2023/01/27 04:09:12;;;;;;;;;;;25.20;79.40;;;;;;6303825;22;20284;-75
2023/01/27 04:11:54;;;;;;;;;;;25.20;78.90;;;;;;6305458;22;19973;-75
2023/01/27 04:14:21;;;;;;;;;;;25.20;79.90;;;;;;6305918;22;19985;-76
2023/01/27 04:16:48;;;;;;;;;;;25.20;78.70;;;;;;6305831;22;19914;-78
2023/01/27 04:19:15;;;;;;;;;;;25.20;78.80;;;;;;6304477;22;20355;-78
2023/01/27 04:21:42;;;;;;;;;;;25.20;79.20;;;;;;6302291;22;20247;-76
2023/01/27 04:24:16;;;;;;;;;;;25.30;79.70;;;;;;6304981;22;19903;-74
2023/01/27 04:26:43;;;;;;;;;;;25.30;79.20;;;;;;6278923;22;19914;-76
2023/01/27 04:29:11;;;;;;;;;;;25.30;79.50;;;;;;6305472;22;19907;-81
2023/01/27 04:31:38;;;;;;;;;;;25.30;79.70;;;;;;6278498;22;19919;-80
2023/01/27 04:34:04;;;;;;;;;;;25.30;79.10;;;;;;6304929;22;19914;-75
2023/01/27 04:36:31;;;;;;;;;;;25.30;79.70;;;;;;6304819;22;20439;-76
2023/01/27 04:38:58;;;;;;;;;;;25.30;78.90;;;;;;6304814;22;20280;-76
2023/01/27 04:41:24;;;;;;;;;;;25.30;79.20;;;;;;6304775;22;20152;-75
2023/01/27 04:43:51;;;;;;;;;;;25.20;79.50;;;;;;6304910;22;20219;-79
2023/01/27 04:46:18;;;;;;;;;;;25.30;80.20;;;;;;6304590;22;19985;-81
2023/01/27 04:48:44;;;;;;;;;;;25.30;79.90;;;;;;6304729;22;19910;-78
2023/01/27 04:51:11;;;;;;;;;;;25.30;79.40;;;;;;6305161;22;19946;-80
2023/01/27 04:53:38;;;;;;;;;;;25.30;79.70;;;;;;6306178;22;20231;-80
2023/01/27 04:56:05;;;;;;;;;;;25.30;79.90;;;;;;6305718;22;19903;-80
2023/01/27 04:58:32;;;;;;;;;;;25.30;79.50;;;;;;6305158;22;19910;-77
2023/01/27 05:00:59;;;;;;;;;;;25.30;80.40;;;;;;6278532;22;20254;-78
2023/01/27 05:03:25;;;;;;;;;;;25.30;79.80;;;;;;6277323;22;20303;-79
2023/01/27 05:05:52;;;;;;;;;;;25.30;79.70;;;;;;6305551;22;19913;-80
2023/01/27 05:08:19;;;;;;;;;;;25.30;79.80;;;;;;6305113;22;20229;-78
2023/01/27 05:10:45;;;;;;;;;;;25.30;79.90;;;;;;6304895;22;19903;-78
2023/01/27 05:13:12;;;;;;;;;;;25.30;79.60;;;;;;6277457;22;20228;-75
2023/01/27 05:15:39;;;;;;;;;;;25.30;79.60;;;;;;6304907;22;19906;-75
2023/01/27 05:18:05;;;;;;;;;;;25.30;79.70;;;;;;6304469;22;19907;-77
2023/01/27 05:20:32;;;;;;;;;;;25.30;80.40;;;;;;6301534;22;19937;-77
2023/01/27 05:25:43;;;;;;;;;;;25.30;80.10;;;;;;6303288;22;20336;-76
2023/01/27 05:28:10;;;;;;;;;;;25.30;80.10;;;;;;6303826;22;19913;-76
2023/01/27 05:30:37;;;;;;;;;;;25.40;80.50;;;;;;6303833;22;19907;-74
2023/01/27 05:33:04;;;;;;;;;;;25.40;80.10;;;;;;6303000;22;19918;-75
2023/01/27 05:35:33;;;;;;;;;;;25.40;79.80;;;;;;6304201;22;19934;-74
2023/01/27 05:38:00;;;;;;;;;;;25.40;80.50;;;;;;6303389;22;19911;-75
2023/01/27 05:40:27;;;;;;;;;;;25.50;80.60;;;;;;6303305;22;19929;-74
2023/01/27 05:42:53;;;;;;;;;;;25.50;80.60;;;;;;6303832;22;19907;-76
2023/01/27 05:45:20;;;;;;;;;;;25.60;80.60;;;;;;6303680;22;19907;-74
2023/01/27 05:47:52;;;;;;;;;;;25.50;80.80;;;;;;6304190;22;19914;-72
2023/01/27 05:50:19;;;;;;;;;;;25.60;81.00;;;;;;6277270;22;20025;-72
2023/01/27 05:52:46;;;;;;;;;;;25.60;80.80;;;;;;6304137;22;19903;-75
2023/01/27 05:55:12;;;;;;;;;;;25.70;80.60;;;;;;6302368;22;19968;-75
2023/01/27 05:57:39;;;;;;;;;;;25.70;80.50;;;;;;6303953;22;20306;-74
2023/01/27 06:00:06;;;;;;;;;;;25.80;80.30;;;;;;6303788;22;19922;-73
2023/01/27 06:02:33;;;;;;;;;;;25.80;80.00;;;;;;6302334;22;19986;-76
2023/01/27 06:04:59;;;;;;;;;;;25.80;80.20;;;;;;6301435;22;20242;-74
2023/01/27 06:07:26;;;;;;;;;;;25.80;80.10;;;;;;6303798;22;19981;-72
2023/01/27 06:09:53;;;;;;;;;;;25.70;79.70;;;;;;6303472;22;20321;-76
2023/01/27 06:12:19;;;;;;;;;;;25.70;80.50;;;;;;6276119;22;20420;-73
2023/01/27 06:14:46;;;;;;;;;;;25.50;80.90;;;;;;6303625;22;20310;-74
2023/01/27 06:17:13;;;;;;;;;;;25.40;80.80;;;;;;6303427;22;19918;-76
2023/01/27 06:19:39;;;;;;;;;;;25.40;81.20;;;;;;6302093;22;19915;-75
2023/01/27 06:22:06;;;;;;;;;;;25.30;81.30;;;;;;6301403;22;19911;-77
2023/01/27 06:24:33;;;;;;;;;;;25.30;81.70;;;;;;6304122;22;19906;-78
2023/01/27 06:26:59;;;;;;;;;;;25.20;82.40;;;;;;6303893;22;19910;-75
2023/01/27 06:29:26;;;;;;;;;;;25.10;82.40;;;;;;6303829;22;19926;-69
2023/01/27 06:31:52;;;;;;;;;;;25.10;82.30;;;;;;6303162;22;19919;-70
2023/01/27 06:34:19;;;;;;;;;;;25.10;82.80;;;;;;6302767;22;19956;-72
2023/01/27 06:36:46;;;;;;;;;;;25.10;81.80;;;;;;6303330;22;19907;-74
2023/01/27 06:39:13;;;;;;;;;;;25.00;82.00;;;;;;6301460;22;19986;-72
2023/01/27 06:41:39;;;;;;;;;;;25.00;82.30;;;;;;6303010;22;19918;-71
2023/01/27 06:44:06;;;;;;;;;;;25.00;82.20;;;;;;6302414;22;19903;-73
2023/01/27 06:46:33;;;;;;;;;;;25.00;82.70;;;;;;6301891;22;19956;-73
2023/01/27 06:48:59;;;;;;;;;;;25.00;83.00;;;;;;6302578;22;20065;-70
2023/01/27 06:51:26;;;;;;;;;;;24.90;82.90;;;;;;6302998;22;19990;-71
2023/01/27 06:53:52;;;;;;;;;;;24.90;82.80;;;;;;6298621;22;19960;-69
2023/01/27 06:56:19;;;;;;;;;;;24.90;83.30;;;;;;6302868;22;19906;-71
2023/01/27 06:58:46;;;;;;;;;;;25.00;83.30;;;;;;6302750;22;19913;-71
2023/01/27 07:01:13;;;;;;;;;;;24.90;83.00;;;;;;6301875;22;19918;-71
2023/01/27 07:03:40;;;;;;;;;;;24.90;83.60;;;;;;6303075;22;19914;-70
2023/01/27 07:06:07;;;;;;;;;;;24.90;83.10;;;;;;6301800;22;20349;-70
2023/01/27 07:08:34;;;;;;;;;;;24.80;83.20;;;;;;6299691;22;19907;-70
2023/01/27 07:11:04;;;;;;;;;;;24.80;83.50;;;;;;6272194;22;19906;-70
2023/01/27 07:13:30;;;;;;;;;;;24.90;83.60;;;;;;6302613;22;20219;-71
2023/01/27 07:15:59;;;;;;;;;;;24.90;83.60;;;;;;6302509;22;19907;-70
2023/01/27 07:18:25;;;;;;;;;;;24.90;83.40;;;;;;6302263;22;19903;-70
2023/01/27 07:20:52;;;;;;;;;;;24.90;83.40;;;;;;6302262;22;19910;-71
2023/01/27 07:23:19;;;;;;;;;;;24.90;83.70;;;;;;6300814;22;19982;-72
2023/01/27 07:25:46;;;;;;;;;;;24.90;83.30;;;;;;6301651;22;19997;-75
2023/01/27 07:28:12;;;;;;;;;;;24.90;83.20;;;;;;6301536;22;20222;-72
2023/01/27 07:30:39;;;;;;;;;;;24.80;83.30;;;;;;6302906;22;19910;-73
2023/01/27 07:33:06;;;;;;;;;;;24.80;83.60;;;;;;6301819;22;19926;-72
2023/01/27 07:35:33;;;;;;;;;;;24.80;83.90;;;;;;6300492;22;20337;-72
2023/01/27 10:50:40;;;;;;;;;;;24.10;91.60;;;;;;6301068;22;19919;-67
2023/01/27 10:53:12;;;;;;;;;;;24.20;91.60;;;;;;6232770;22;20239;-67
2023/01/27 10:55:42;;;;;;;;;;;24.20;91.50;;;;;;6245391;22;19903;-67
2023/01/27 10:58:19;;;;;;;;;;;24.10;91.30;;;;;;6272397;22;19907;-67
2023/01/27 11:00:47;;;;;;;;;;;24.20;91.20;;;;;;6271135;22;19915;-67
2023/01/27 11:03:13;;;;;;;;;;;24.10;91.20;;;;;;6273055;22;20166;-67
2023/01/27 11:05:45;;;;;;;;;;;24.10;90.90;;;;;;6272759;22;19908;-67
2023/01/27 11:08:14;;;;;;;;;;;24.10;90.80;;;;;;6246148;22;19911;-67
2023/01/27 11:11:43;;;;;;;;;;;24.10;90.80;;;;;;6219861;22;19962;-67
2023/01/27 11:13:31;;;;;;;;;;;24.10;90.70;;;;;;6249948;22;20386;-67
2023/01/27 11:15:58;;;;;;;;;;;24.10;90.60;;;;;;6245180;22;19982;-67
2023/01/27 11:18:28;;;;;;;;;;;24.10;90.50;;;;;;6245080;22;20226;-67
2023/01/27 11:21:21;;;;;;;;;;;24.00;90.50;;;;;;6244704;22;19919;-66
2023/01/27 11:23:50;;;;;;;;;;;24.00;90.50;;;;;;6265689;22;19918;-66
2023/01/27 11:26:52;;;;;;;;;;;24.10;90.60;;;;;;6245903;22;19907;-67
2023/01/27 11:29:19;;;;;;;;;;;24.00;90.70;;;;;;6119421;23;19952;-67
2023/01/27 11:31:46;;;;;;;;;;;24.10;90.70;;;;;;6242279;22;19903;-66
2023/01/27 11:34:31;;;;;;;;;;;24.10;90.60;;;;;;6270242;22;19908;-67
2023/01/27 11:36:58;;;;;;;;;;;24.10;90.60;;;;;;6271939;22;19903;-67
2023/01/27 11:39:26;;;;;;;;;;;24.10;90.60;;;;;;6272387;22;19907;-67
2023/01/27 11:41:54;;;;;;;;;;;24.10;90.70;;;;;;6245954;22;19916;-67
2023/01/27 11:44:22;;;;;;;;;;;24.10;90.60;;;;;;6245177;22;19913;-68
2023/01/27 11:46:49;;;;;;;;;;;24.10;90.70;;;;;;6244902;22;19908;-67
2023/01/27 11:49:19;;;;;;;;;;;24.20;90.70;;;;;;6272536;22;19907;-67
2023/01/27 11:51:47;;;;;;;;;;;24.10;90.60;;;;;;6272095;22;19916;-67
2023/01/27 11:54:20;;;;;;;;;;;24.10;90.70;;;;;;6275317;22;19903;-66
2023/01/27 11:56:47;;;;;;;;;;;24.10;90.70;;;;;;6274016;22;19933;-66
2023/01/27 11:59:24;;;;;;;;;;;24.20;90.60;;;;;;6273652;22;20341;-66
2023/01/27 12:02:06;;;;;;;;;;;24.10;90.70;;;;;;6248185;22;20286;-65
2023/01/27 12:04:33;;;;;;;;;;;24.10;90.70;;;;;;6274338;22;19910;-64
2023/01/27 12:07:01;;;;;;;;;;;24.20;90.80;;;;;;6274934;22;20219;-65
2023/01/27 12:09:31;;;;;;;;;;;24.20;91.00;;;;;;6274637;22;19930;-65
2023/01/27 12:12:11;;;;;;;;;;;24.20;91.10;;;;;;6274591;22;19907;-67
2023/01/27 12:14:37;;;;;;;;;;;24.20;91.20;;;;;;6247742;22;19973;-67
2023/01/27 12:17:05;;;;;;;;;;;24.20;91.30;;;;;;6275190;22;19903;-67
2023/01/27 12:19:34;;;;;;;;;;;24.10;91.40;;;;;;6248661;22;19982;-67
2023/01/27 12:22:01;;;;;;;;;;;24.10;91.20;;;;;;6247850;22;19911;-67
2023/01/27 12:24:32;;;;;;;;;;;24.10;91.50;;;;;;6275618;22;19935;-67
2023/01/27 12:26:59;;;;;;;;;;;24.10;91.50;;;;;;6248261;22;19911;-66
2023/01/27 12:29:27;;;;;;;;;;;24.10;91.60;;;;;;6275459;22;19947;-66
2023/01/27 12:31:54;;;;;;;;;;;24.00;91.70;;;;;;6277378;22;19904;-66
2023/01/27 12:34:28;;;;;;;;;;;24.00;91.70;;;;;;6277027;22;19986;-66
2023/01/27 12:36:55;;;;;;;;;;;24.00;91.50;;;;;;6250592;22;20318;-66
2023/01/27 12:39:30;;;;;;;;;;;24.00;91.50;;;;;;6277347;22;19904;-66
2023/01/27 12:41:56;;;;;;;;;;;24.00;91.50;;;;;;6250282;22;19919;-66
2023/01/27 12:44:25;;;;;;;;;;;24.00;91.50;;;;;;6276591;22;19903;-66
2023/01/27 12:46:57;;;;;;;;;;;24.00;91.40;;;;;;6250561;22;19903;-66
2023/01/27 12:49:23;;;;;;;;;;;24.00;91.40;;;;;;6250311;22;19904;-66
2023/01/27 12:51:51;;;;;;;;;;;24.00;91.30;;;;;;6250010;22;19969;-66
2023/01/27 12:54:21;;;;;;;;;;;24.00;91.30;;;;;;6250060;22;19911;-67
2023/01/27 12:56:49;;;;;;;;;;;24.00;91.30;;;;;;6277306;22;19982;-67
2023/01/27 12:59:16;;;;;;;;;;;24.00;91.20;;;;;;6277249;22;19981;-66
2023/01/27 13:01:43;;;;;;;;;;;24.00;91.20;;;;;;6250328;22;19919;-67
2023/01/27 13:04:15;;;;;;;;;;;24.00;91.20;;;;;;6250273;22;20211;-67
2023/01/27 13:06:42;;;;;;;;;;;24.10;91.20;;;;;;6249688;22;19903;-67
2023/01/27 13:09:18;;;;;;;;;;;24.10;91.30;;;;;;6277157;22;19911;-67
2023/01/27 13:11:44;;;;;;;;;;;24.00;91.20;;;;;;6276521;22;19934;-67
2023/01/27 13:14:15;;;;;;;;;;;24.10;91.20;;;;;;6276739;22;19903;-67
2023/01/27 13:16:41;;;;;;;;;;;24.10;91.20;;;;;;6249923;22;20392;-67
2023/01/27 13:19:15;;;;;;;;;;;24.10;91.00;;;;;;6250043;22;20246;-67
2023/01/27 13:21:41;;;;;;;;;;;24.10;91.10;;;;;;6276761;22;19966;-67
2023/01/27 13:24:18;;;;;;;;;;;24.10;91.10;;;;;;6249963;22;20000;-68
2023/01/27 13:26:44;;;;;;;;;;;24.10;91.20;;;;;;6250393;22;20323;-68
2023/01/27 13:29:15;;;;;;;;;;;24.10;91.10;;;;;;6276960;22;19903;-68
2023/01/27 13:31:57;;;;;;;;;;;24.10;91.10;;;;;;6249764;22;19910;-68
2023/01/27 13:34:35;;;;;;;;;;;24.10;91.10;;;;;;6276987;22;19903;-68
2023/01/27 13:37:18;;;;;;;;;;;24.10;91.20;;;;;;6250162;22;20373;-67
2023/01/27 13:39:47;;;;;;;;;;;24.10;91.10;;;;;;6249360;22;19995;-67
2023/01/27 13:42:32;;;;;;;;;;;24.10;91.10;;;;;;6276126;22;20234;-68
2023/01/27 13:45:05;;;;;;;;;;;24.20;91.10;;;;;;6276753;22;19903;-68
2023/01/27 13:47:44;;;;;;;;;;;24.20;91.30;;;;;;6276734;22;19910;-68
2023/01/27 13:50:26;;;;;;;;;;;24.20;91.40;;;;;;6249464;22;19903;-68
2023/01/27 13:52:53;;;;;;;;;;;24.30;91.40;;;;;;6249697;22;19950;-68
2023/01/27 13:55:21;;;;;;;;;;;24.20;91.30;;;;;;6249419;22;19907;-67
2023/01/27 13:57:48;;;;;;;;;;;24.20;91.30;;;;;;6249668;22;20318;-67
2023/01/27 14:00:22;;;;;;;;;;;24.20;91.30;;;;;;6275875;22;19978;-68
2023/01/27 14:03:07;;;;;;;;;;;24.20;91.30;;;;;;6249933;22;19979;-68
2023/01/27 14:05:51;;;;;;;;;;;24.20;91.20;;;;;;6249617;22;19985;-68
2023/01/27 14:08:27;;;;;;;;;;;24.20;91.30;;;;;;6276323;22;19903;-68
2023/01/27 14:10:54;;;;;;;;;;;24.20;91.40;;;;;;6276900;22;19907;-68
2023/01/27 14:13:32;;;;;;;;;;;24.20;91.50;;;;;;6276590;22;19910;-68
2023/01/27 14:16:10;;;;;;;;;;;24.20;91.70;;;;;;6276216;22;20319;-67
2023/01/27 14:18:44;;;;;;;;;;;24.30;91.80;;;;;;6248721;22;20314;-67
2023/01/27 14:21:13;;;;;;;;;;;24.20;91.80;;;;;;6275345;22;19918;-68
2023/01/27 14:23:41;;;;;;;;;;;24.20;91.70;;;;;;6276029;22;19934;-68
2023/01/27 14:26:11;;;;;;;;;;;24.20;91.70;;;;;;6275938;22;19910;-68
2023/01/27 14:28:47;;;;;;;;;;;24.20;91.70;;;;;;6276122;22;19911;-67
2023/01/27 14:31:16;;;;;;;;;;;24.20;91.50;;;;;;6275799;22;19910;-67
2023/01/27 14:33:43;;;;;;;;;;;24.10;91.40;;;;;;6276346;22;20337;-67
2023/01/27 14:36:16;;;;;;;;;;;24.00;91.40;;;;;;6276002;22;20078;-67
2023/01/27 14:38:48;;;;;;;;;;;24.00;91.40;;;;;;6276187;22;19904;-67
2023/01/27 14:41:20;;;;;;;;;;;24.00;91.50;;;;;;6248462;22;19912;-67
2023/01/27 14:43:49;;;;;;;;;;;23.90;91.50;;;;;;6276366;22;19904;-67
2023/01/27 14:46:30;;;;;;;;;;;23.90;91.50;;;;;;6276392;22;19965;-67
2023/01/27 14:49:03;;;;;;;;;;;23.90;91.60;;;;;;6276297;22;19903;-67
2023/01/27 14:51:33;;;;;;;;;;;23.90;91.50;;;;;;6275809;22;19922;-67
2023/01/27 14:54:05;;;;;;;;;;;23.80;91.60;;;;;;6275463;22;19903;-67
2023/01/27 14:56:35;;;;;;;;;;;23.80;91.60;;;;;;6249064;22;20340;-67
2023/01/27 14:59:14;;;;;;;;;;;23.80;91.50;;;;;;6276107;22;19914;-67
2023/01/27 15:01:48;;;;;;;;;;;23.80;91.50;;;;;;6275581;22;20001;-67
2023/01/27 15:04:18;;;;;;;;;;;23.80;91.50;;;;;;6248788;22;19926;-67
2023/01/27 15:06:48;;;;;;;;;;;23.80;91.50;;;;;;6275569;22;20373;-67
2023/01/27 15:09:30;;;;;;;;;;;23.90;91.50;;;;;;6276084;22;19950;-69
2023/01/27 15:12:01;;;;;;;;;;;23.80;91.50;;;;;;6248157;22;19903;-67
2023/01/27 15:14:27;;;;;;;;;;;23.90;91.50;;;;;;6249327;22;19957;-67
2023/01/27 15:17:23;;;;;;;;;;;23.80;91.50;;;;;;6275772;22;19907;-67
2023/01/27 15:20:08;;;;;;;;;;;23.80;91.50;;;;;;6141503;22;19912;-67
2023/01/27 15:22:40;;;;;;;;;;;23.90;91.50;;;;;;6275586;22;19903;-67
2023/01/27 15:25:16;;;;;;;;;;;23.80;91.40;;;;;;6275542;22;19903;-67
2023/01/27 15:27:43;;;;;;;;;;;23.80;91.40;;;;;;6276098;22;19957;-68
2023/01/27 15:30:26;;;;;;;;;;;23.80;91.40;;;;;;6248859;22;19958;-67
2023/01/27 15:32:53;;;;;;;;;;;23.80;91.50;;;;;;6275456;22;19911;-67
2023/01/27 15:35:29;;;;;;;;;;;23.80;91.50;;;;;;6249032;22;19990;-67
2023/01/27 15:38:07;;;;;;;;;;;23.80;91.50;;;;;;6275737;22;19946;-67
2023/01/27 15:40:56;;;;;;;;;;;23.80;91.40;;;;;;6276188;22;19918;-66
2023/01/27 15:43:24;;;;;;;;;;;23.80;91.50;;;;;;6256611;22;19923;-66
2023/01/27 15:45:54;;;;;;;;;;;23.70;91.50;;;;;;6276061;22;20274;-67
2023/01/27 15:48:28;;;;;;;;;;;23.70;91.50;;;;;;6275998;22;19903;-67
2023/01/27 15:50:58;;;;;;;;;;;23.70;91.50;;;;;;6248716;22;19915;-67
2023/01/27 15:53:31;;;;;;;;;;;23.70;91.50;;;;;;6249144;22;19903;-67
2023/01/27 15:55:58;;;;;;;;;;;23.70;91.50;;;;;;6275485;22;19978;-67
2023/01/27 15:58:31;;;;;;;;;;;23.70;91.60;;;;;;6274913;22;19904;-67
2023/01/27 16:00:59;;;;;;;;;;;23.70;91.60;;;;;;6248367;22;20420;-67
2023/01/27 16:03:28;;;;;;;;;;;23.70;91.60;;;;;;6248957;22;19903;-67
2023/01/27 16:05:56;;;;;;;;;;;23.60;91.60;;;;;;6249644;22;19915;-67
2023/01/27 16:08:22;;;;;;;;;;;23.60;91.60;;;;;;6250730;22;19903;-68
2023/01/27 16:10:49;;;;;;;;;;;23.60;91.70;;;;;;6277452;22;19943;-67
2023/01/27 16:13:25;;;;;;;;;;;23.60;91.70;;;;;;6277410;22;19907;-67
2023/01/27 16:16:10;;;;;;;;;;;23.50;91.70;;;;;;6277701;22;19911;-67
2023/01/27 16:18:59;;;;;;;;;;;23.60;91.70;;;;;;6277176;22;19949;-67
2023/01/27 16:21:33;;;;;;;;;;;23.60;91.80;;;;;;6258085;22;19934;-67
2023/01/27 16:24:01;;;;;;;;;;;23.60;91.90;;;;;;6275539;22;20238;-67
2023/01/27 16:26:28;;;;;;;;;;;23.60;91.80;;;;;;6277765;22;19903;-67
2023/01/27 16:29:24;;;;;;;;;;;23.60;91.80;;;;;;6277626;22;20009;-68
2023/01/27 16:31:52;;;;;;;;;;;23.60;91.80;;;;;;6245976;22;19903;-67
2023/01/27 16:34:26;;;;;;;;;;;23.60;91.80;;;;;;6250422;22;19908;-67
2023/01/27 16:37:03;;;;;;;;;;;23.60;91.80;;;;;;6250519;22;19946;-67
2023/01/27 16:39:33;;;;;;;;;;;23.60;91.70;;;;;;6250492;22;19911;-67
2023/01/27 16:42:00;;;;;;;;;;;23.60;91.70;;;;;;6277480;22;19911;-67
2023/01/27 16:44:37;;;;;;;;;;;23.70;91.80;;;;;;6249953;22;19907;-67
2023/01/27 16:47:11;;;;;;;;;;;23.60;91.80;;;;;;6250507;22;19903;-67
2023/01/27 16:49:38;;;;;;;;;;;23.60;91.80;;;;;;6251823;22;19969;-67
2023/01/27 16:52:05;;;;;;;;;;;23.60;91.70;;;;;;6250535;22;20253;-67
2023/01/27 16:54:35;;;;;;;;;;;23.60;91.70;;;;;;6250033;22;19903;-67
2023/01/27 16:57:03;;;;;;;;;;;23.60;91.70;;;;;;6250120;22;19911;-67
2023/01/27 16:59:30;;;;;;;;;;;23.50;91.60;;;;;;6224667;22;19953;-67
2023/01/27 17:02:01;;;;;;;;;;;23.50;91.80;;;;;;6276884;22;19957;-67
2023/01/27 17:04:28;;;;;;;;;;;23.50;91.70;;;;;;6250427;22;20346;-67
2023/01/27 17:06:58;;;;;;;;;;;23.50;91.80;;;;;;6277389;22;20330;-67
2023/01/27 17:09:26;;;;;;;;;;;23.50;91.70;;;;;;6250374;22;19903;-67
2023/01/27 17:11:53;;;;;;;;;;;23.50;91.70;;;;;;6250070;22;19946;-67
2023/01/27 17:14:20;;;;;;;;;;;23.50;91.70;;;;;;6250179;22;19907;-67
2023/01/27 17:16:47;;;;;;;;;;;23.40;91.70;;;;;;6249714;22;19910;-67
2023/01/27 17:19:23;;;;;;;;;;;23.40;91.60;;;;;;6277092;22;19903;-67
2023/01/27 17:21:54;;;;;;;;;;;23.40;91.80;;;;;;6276452;22;19911;-67
2023/01/27 17:24:30;;;;;;;;;;;23.30;91.90;;;;;;6249764;22;19958;-67
2023/01/27 17:27:00;;;;;;;;;;;23.30;92.00;;;;;;6277065;22;19911;-67
2023/01/27 17:29:31;;;;;;;;;;;23.40;92.00;;;;;;6276885;22;20020;-67
2023/01/27 17:31:58;;;;;;;;;;;23.40;92.00;;;;;;6276696;22;19908;-67
2023/01/27 17:34:25;;;;;;;;;;;23.30;92.10;;;;;;6276753;22;19982;-67
2023/01/27 17:37:07;;;;;;;;;;;23.30;92.10;;;;;;6249865;22;19975;-67
2023/01/27 17:39:34;;;;;;;;;;;23.30;92.10;;;;;;6276441;22;19907;-67
2023/01/27 17:42:01;;;;;;;;;;;23.30;92.10;;;;;;6249502;22;19911;-67
2023/01/27 17:44:27;;;;;;;;;;;23.30;92.10;;;;;;6249944;22;19906;-67
2023/01/27 17:46:54;;;;;;;;;;;23.30;92.10;;;;;;6276806;22;20255;-67
2023/01/27 17:49:21;;;;;;;;;;;23.30;92.00;;;;;;6249823;22;19931;-67
2023/01/27 17:51:50;;;;;;;;;;;23.20;92.00;;;;;;6252470;22;20033;-66
2023/01/27 17:54:29;;;;;;;;;;;23.30;92.00;;;;;;6281060;22;19985;-66
2023/01/27 17:57:06;;;;;;;;;;;23.30;92.00;;;;;;6308184;22;19940;-66
2023/01/27 17:59:32;;;;;;;;;;;23.20;91.90;;;;;;6307122;22;19910;-69
2023/01/27 18:02:00;;;;;;;;;;;23.20;92.00;;;;;;6307812;22;19935;-68
2023/01/27 18:04:27;;;;;;;;;;;23.20;92.00;;;;;;6307709;22;19906;-67
2023/01/27 18:06:54;;;;;;;;;;;23.20;92.00;;;;;;6280509;22;19914;-68
2023/01/27 18:09:30;;;;;;;;;;;23.20;92.10;;;;;;6307859;22;20322;-67
2023/01/27 18:12:01;;;;;;;;;;;23.10;92.00;;;;;;6280354;22;19913;-67
2023/01/27 18:14:31;;;;;;;;;;;23.10;92.00;;;;;;6307618;22;19903;-67